Time;durP1;ratioP1;P1;durP2;ratioP2;P2;SDS_P1;SDS_P2;PMS_P1;PMS_P2;Temp;Humidity;BMP_temperature;BMP_pressure;BME280_temperature;BME280_humidity;BME280_pressure;Samples;Min_cycle;Max_cycle;Signal;HPM_P1;HPM_P2
2022/09/18 00:01:33;;;;;;;6.22;1.27;;;;;;;7.76;86.02;98057.19;4234115;27;20518;-72
2022/09/18 00:03:34;;;;;;;7.10;2.70;;;;;;;7.80;86.03;98060.03;4231464;27;20514;-72
2022/09/18 00:05:35;;;;;;;4.88;2.28;;;;;;;7.77;86.04;98066.25;4234519;27;20043;-72
2022/09/18 00:07:36;;;;;;;5.13;1.50;;;;;;;7.77;86.52;98063.50;4236778;27;20122;-72
2022/09/18 00:09:36;;;;;;;4.65;1.10;;;;;;;7.72;86.51;98064.63;4235808;27;20209;-72
2022/09/18 00:11:43;;;;;;;6.47;1.40;;;;;;;7.84;85.73;98060.84;4235179;27;20035;-72
2022/09/18 00:13:43;;;;;;;3.08;1.10;;;;;;;7.71;86.52;98065.78;4235649;27;20046;-72
2022/09/18 00:15:53;;;;;;;5.90;1.27;;;;;;;7.61;87.15;98069.13;4236568;27;20048;-72
2022/09/18 00:17:54;;;;;;;4.88;1.63;;;;;;;7.58;87.70;98067.13;4235970;27;20036;-72
2022/09/18 00:19:54;;;;;;;3.20;1.15;;;;;;;7.64;86.95;98073.94;4237233;27;20302;-72
2022/09/18 00:21:54;;;;;;;3.85;1.33;;;;;;;7.61;87.06;98069.13;4235488;27;20303;-72
2022/09/18 00:23:57;;;;;;;4.32;1.38;;;;;;;7.56;87.48;98072.22;4233929;27;20067;-72
2022/09/18 00:25:57;;;;;;;;;;;;;;;7.52;87.61;98068.59;4238176;27;20494;-72
2022/09/18 00:27:58;;;;;;;5.57;1.52;;;;;;;7.47;88.11;98075.22;4217716;28;20574;-73
2022/09/18 00:29:58;;;;;;;7.75;1.70;;;;;;;7.54;88.07;98074.56;4235024;28;20582;-72
2022/09/18 00:31:58;;;;;;;3.50;1.13;;;;;;;7.46;88.60;98075.59;4235445;27;20035;-72
2022/09/18 00:34:01;;;;;;;6.90;1.80;;;;;;;7.48;88.49;98081.53;4235662;27;20509;-72
2022/09/18 00:36:04;;;;;;;4.95;1.38;;;;;;;7.50;88.48;98068.97;4217618;28;20051;-72
2022/09/18 00:38:05;;;;;;;4.30;1.42;;;;;;;7.52;88.29;98072.13;4235507;27;20027;-72
2022/09/18 00:40:05;;;;;;;3.30;1.33;;;;;;;7.53;88.10;98070.19;4234840;27;20745;-72
2022/09/18 00:42:06;;;;;;;5.20;1.17;;;;;;;7.52;88.46;98076.84;4235871;27;20375;-72
2022/09/18 00:44:44;;;;;;;7.18;1.20;;;;;;;7.52;88.73;98077.66;4234835;27;20312;-73
2022/09/18 00:46:44;;;;;;;6.50;1.52;;;;;;;7.48;88.88;98071.31;4236135;27;20054;-72
2022/09/18 00:49:06;;;;;;;6.85;1.80;;;;;;;7.52;88.38;98080.41;4235051;27;20051;-72
2022/09/18 00:51:07;;;;;;;5.95;1.50;;;;;;;7.48;88.77;98070.50;4234719;27;20042;-72
2022/09/18 00:53:07;;;;;;;6.88;1.42;;;;;;;7.49;88.50;98064.63;4234802;27;20122;-72
2022/09/18 00:55:09;;;;;;;5.72;1.48;;;;;;;7.51;88.10;98083.53;4235590;27;20078;-72
2022/09/18 00:57:15;;;;;;;6.80;1.73;;;;;;;7.51;88.64;98078.81;4235195;27;20341;-72
2022/09/18 00:59:22;;;;;;;7.13;2.00;;;;;;;7.49;88.39;98086.66;4239665;27;20049;-72
2022/09/18 01:01:22;;;;;;;5.20;1.25;;;;;;;7.57;88.29;98084.81;4239208;27;20162;-72
2022/09/18 01:03:23;;;;;;;7.95;1.52;;;;;;;7.56;88.39;98086.78;4220101;28;20094;-72
2022/09/18 01:05:49;;;;;;;4.75;1.75;;;;;;;7.58;88.42;98087.19;4238286;27;20047;-72
2022/09/18 01:08:08;;;;;;;6.18;1.67;;;;;;;7.59;88.49;98093.50;4237663;27;20135;-72
2022/09/18 01:10:44;;;;;;;4.13;1.40;;;;;;;7.65;87.84;98102.25;4236767;27;20073;-72
2022/09/18 01:12:54;;;;;;;3.08;1.30;;;;;;;7.61;88.16;98102.19;4238581;27;20528;-72
2022/09/18 01:15:04;;;;;;;3.38;1.30;;;;;;;7.64;87.95;98108.94;4237991;27;20055;-72
2022/09/18 01:17:14;;;;;;;9.40;1.65;;;;;;;7.63;88.68;98108.13;4238592;27;20043;-72
2022/09/18 01:19:42;;;;;;;3.83;1.33;;;;;;;7.61;88.56;98110.44;4237317;27;20039;-72
2022/09/18 01:21:54;;;;;;;8.02;3.00;;;;;;;7.69;88.70;98117.66;4237330;27;20043;-72
2022/09/18 01:24:29;;;;;;;4.65;1.58;;;;;;;7.78;88.34;98117.44;4237989;27;20321;-72
2022/09/18 01:26:54;;;;;;;3.95;1.27;;;;;;;7.79;88.31;98108.00;4238712;27;20034;-72
2022/09/18 01:29:05;;;;;;;6.43;1.52;;;;;;;7.80;87.68;98115.91;4237748;27;20042;-72
2022/09/18 01:31:12;;;;;;;6.03;1.70;;;;;;;7.75;87.84;98118.16;4237239;27;20087;-72
2022/09/18 01:33:34;;;;;;;5.07;1.70;;;;;;;7.69;88.56;98125.91;4237811;27;20039;-72
2022/09/18 01:35:41;;;;;;;4.78;1.98;;;;;;;7.71;88.63;98118.09;4238075;27;20043;-72
2022/09/18 01:37:51;;;;;;;3.45;1.33;;;;;;;7.73;89.02;98123.25;4237465;27;20160;-72
2022/09/18 01:40:00;;;;;;;8.07;1.80;;;;;;;7.69;89.06;98123.16;4236488;27;20508;-72
2022/09/18 01:42:03;;;;;;;3.55;1.60;;;;;;;7.66;88.96;98121.16;4236798;27;20539;-72
2022/09/18 01:44:13;;;;;;;5.80;1.73;;;;;;;7.64;89.07;98108.94;4237408;27;20047;-72
2022/09/18 01:46:18;;;;;;;10.13;1.95;;;;;;;7.60;89.68;98117.09;4236913;27;20031;-72
2022/09/18 01:48:26;;;;;;;4.63;1.20;;;;;;;7.59;90.29;98113.56;4239184;27;20023;-72
2022/09/18 01:50:31;;;;;;;3.55;1.20;;;;;;;7.72;88.80;98111.44;4238392;27;20043;-72
2022/09/18 01:52:41;;;;;;;4.70;1.75;;;;;;;7.74;89.25;98117.34;4237445;27;20035;-72
2022/09/18 01:54:44;;;;;;;6.07;1.40;;;;;;;7.79;89.30;98124.53;4237840;27;20389;-72
2022/09/18 01:56:53;;;;;;;4.93;1.55;;;;;;;7.89;88.38;98118.41;4238112;27;20439;-72
2022/09/18 01:58:57;;;;;;;5.28;1.48;;;;;;;7.95;87.77;98114.19;4236022;27;20112;-72
2022/09/18 02:01:01;;;;;;;4.22;1.35;;;;;;;7.99;88.05;98116.97;4237600;27;20067;-72
2022/09/18 02:03:10;;;;;;;4.15;1.48;;;;;;;8.00;87.80;98111.09;4235910;27;20054;-72
2022/09/18 02:05:18;;;;;;;7.45;1.67;;;;;;;7.98;88.45;98118.94;4236657;27;20050;-72
2022/09/18 02:07:27;;;;;;;10.15;3.22;;;;;;;7.93;88.21;98113.72;4237982;27;20034;-72
2022/09/18 02:09:28;;;;;;;3.72;1.45;;;;;;;7.94;88.49;98123.56;4235746;27;20095;-72
2022/09/18 02:11:32;;;;;;;4.95;1.73;;;;;;;7.94;88.11;98118.06;4237586;27;20290;-72
2022/09/18 02:14:07;;;;;;;4.07;1.40;;;;;;;8.01;88.23;98128.41;4237356;27;20095;-72
2022/09/18 02:16:13;;;;;;;2.90;1.40;;;;;;;7.96;88.55;98123.22;4232056;27;20134;-72
2022/09/18 02:18:20;;;;;;;5.50;2.03;;;;;;;8.05;88.46;98119.06;4237077;27;20019;-72
2022/09/18 02:20:28;;;;;;;4.38;1.50;;;;;;;7.99;90.72;98128.00;4236451;27;20051;-72
2022/09/18 02:22:32;;;;;;;5.05;1.58;;;;;;;7.94;91.96;98118.06;4237638;27;20047;-72
2022/09/18 02:24:36;;;;;;;5.25;1.50;;;;;;;7.84;93.49;98113.97;4236571;27;20043;-72
2022/09/18 02:26:38;;;;;;;3.72;2.08;;;;;;;7.83;93.86;98111.59;4237595;27;20070;-72
2022/09/18 02:28:40;;;;;;;7.32;1.80;;;;;;;7.70;94.15;98108.25;4235890;27;20383;-72
2022/09/18 02:30:41;;;;;;;5.77;1.60;;;;;;;7.69;94.14;98103.88;4237062;27;20801;-72
2022/09/18 02:32:42;;;;;;;4.50;2.00;;;;;;;7.74;94.10;98122.06;4237053;27;20475;-72
2022/09/18 02:34:42;;;;;;;10.63;3.28;;;;;;;7.73;94.29;98121.28;4236675;27;20047;-72
2022/09/18 02:37:09;;;;;;;7.30;2.75;;;;;;;7.68;96.01;98118.03;4236966;27;20045;-72
2022/09/18 02:39:22;;;;;;;6.13;1.85;;;;;;;7.71;95.50;98109.06;4236167;27;20847;-72
2022/09/18 02:41:58;;;;;;;8.18;1.75;;;;;;;7.61;96.82;98110.44;4237170;27;20530;-73
2022/09/18 02:44:08;;;;;;;7.20;2.10;;;;;;;7.62;96.37;98103.78;4236877;27;20043;-72
2022/09/18 02:46:11;;;;;;;4.40;1.67;;;;;;;7.66;96.17;98104.63;4235657;27;20051;-72
2022/09/18 02:48:33;;;;;;;9.13;1.98;;;;;;;7.71;96.42;98122.81;4236364;27;20577;-73
2022/09/18 02:50:40;;;;;;;6.57;2.10;;;;;;;7.68;96.89;98137.31;4235933;27;20035;-73
2022/09/18 02:53:03;;;;;;;7.00;3.03;;;;;;;7.64;98.39;98112.47;4236775;27;20051;-73
2022/09/18 02:55:14;;;;;;;6.15;2.47;;;;;;;7.59;98.84;98107.25;4236743;27;20103;-73
2022/09/18 02:57:23;;;;;;;7.20;1.90;;;;;;;7.57;99.13;98126.13;4235944;27;20035;-73
2022/09/18 02:59:37;;;;;;;8.13;2.63;;;;;;;7.65;98.79;98127.81;4236078;27;20047;-73
2022/09/18 03:01:40;;;;;;;8.25;2.30;;;;;;;7.69;97.50;98120.41;4235847;27;20038;-73
2022/09/18 03:03:40;;;;;;;;;;;;;;;7.68;97.78;98118.81;4236583;27;20078;-73
2022/09/18 03:05:41;;;;;;;4.97;1.63;;;;;;;7.60;98.38;98115.16;4237077;27;20266;-73
2022/09/18 03:07:41;;;;;;;8.77;1.75;;;;;;;7.60;99.29;98115.16;4237236;27;20039;-73
2022/09/18 03:09:42;;;;;;;8.65;2.47;;;;;;;7.49;100.00;98116.13;4236721;27;20495;-73
2022/09/18 03:11:43;;;;;;;5.63;1.92;;;;;;;7.46;100.00;98120.44;4237092;27;20422;-73
2022/09/18 03:13:43;;;;;;;7.20;1.70;;;;;;;7.48;98.70;98120.06;4236573;27;20469;-73
2022/09/18 03:15:44;;;;;;;9.32;2.05;;;;;;;7.45;98.52;98123.56;4237042;27;20055;-73
2022/09/18 03:17:44;;;;;;;4.18;1.60;;;;;;;7.47;97.98;98113.75;4236528;27;20386;-73
2022/09/18 03:19:45;;;;;;;5.13;1.95;;;;;;;7.55;97.60;98123.72;4235975;27;20039;-73
2022/09/18 03:21:45;;;;;;;7.03;3.08;;;;;;;7.57;97.14;98117.84;4236685;27;20211;-72
2022/09/18 03:23:45;;;;;;;5.00;1.70;;;;;;;7.67;96.38;98120.00;4236623;27;20374;-73
2022/09/18 03:25:49;;;;;;;3.25;1.92;;;;;;;7.56;96.77;98114.31;4236514;27;20079;-72
2022/09/18 03:27:53;;;;;;;5.05;1.60;;;;;;;7.58;96.45;98106.47;4236574;27;20103;-73
2022/09/18 03:29:54;;;;;;;6.15;2.10;;;;;;;7.61;96.33;98115.94;4236203;27;20043;-72
2022/09/18 03:31:54;;;;;;;4.55;1.98;;;;;;;7.63;96.19;98116.41;4236482;27;20042;-72
2022/09/18 03:33:54;;;;;;;3.47;1.70;;;;;;;7.68;95.81;98118.81;4235927;27;20423;-72
2022/09/18 03:35:55;;;;;;;3.75;1.80;;;;;;;7.60;96.56;98112.41;4236271;27;20043;-72
2022/09/18 03:37:55;;;;;;;7.97;2.22;;;;;;;7.54;97.36;98118.59;4236796;27;20399;-73
2022/09/18 03:39:55;;;;;;;7.30;1.80;;;;;;;7.54;97.30;98126.84;4235838;27;20047;-73
2022/09/18 03:41:56;;;;;;;5.35;1.70;;;;;;;7.54;97.49;98126.84;4236592;27;20494;-73
2022/09/18 03:43:56;;;;;;;3.65;1.83;;;;;;;7.56;97.03;98117.06;4235621;27;20081;-73
2022/09/18 03:45:56;;;;;;;5.07;1.95;;;;;;;7.55;96.64;98117.44;4236601;27;20039;-72
2022/09/18 03:47:57;;;;;;;5.72;1.75;;;;;;;7.54;96.04;98113.88;4236212;27;20099;-72
2022/09/18 03:49:57;;;;;;;4.78;1.70;;;;;;;7.56;95.45;98110.75;4235957;27;20265;-72
2022/09/18 03:51:57;;;;;;;3.03;1.77;;;;;;;7.51;95.82;98114.59;4236196;27;20035;-72
2022/09/18 03:53:58;;;;;;;6.35;2.00;;;;;;;7.54;95.36;98104.84;4235906;27;20039;-72
2022/09/18 03:55:58;;;;;;;2.50;1.90;;;;;;;7.54;94.97;98118.59;4236465;27;20035;-72
2022/09/18 03:57:58;;;;;;;4.75;1.90;;;;;;;7.56;95.83;98114.31;4236527;27;20070;-72
2022/09/18 03:59:59;;;;;;;7.63;2.30;;;;;;;7.55;95.91;98111.94;4235540;27;20039;-72
2022/09/18 04:01:59;;;;;;;4.80;1.88;;;;;;;7.53;95.26;98125.25;4235750;27;20487;-72
2022/09/18 04:04:00;;;;;;;5.10;2.75;;;;;;;7.46;96.62;98125.13;4236232;27;20043;-72
2022/09/18 04:06:01;;;;;;;3.63;1.75;;;;;;;7.47;95.74;98130.28;4235865;27;20047;-73
2022/09/18 04:08:01;;;;;;;6.43;1.90;;;;;;;7.51;95.73;98133.06;4236147;27;20064;-72
2022/09/18 04:10:02;;;;;;;5.20;1.92;;;;;;;7.49;95.64;98138.16;4236013;27;20074;-72
2022/09/18 04:12:03;;;;;;;4.95;2.25;;;;;;;7.45;96.01;98145.56;4236067;27;20042;-72
2022/09/18 04:14:03;;;;;;;6.10;2.33;;;;;;;7.34;96.55;98134.34;4236213;27;20030;-72
2022/09/18 04:16:03;;;;;;;9.48;2.28;;;;;;;7.29;96.60;98134.66;4235388;27;20261;-72
2022/09/18 04:18:04;;;;;;;4.85;2.10;;;;;;;7.25;97.35;98137.31;4235937;27;20084;-72
2022/09/18 04:20:05;;;;;;;8.15;2.40;;;;;;;7.22;96.80;98142.78;4235530;27;20027;-72
2022/09/18 04:22:05;;;;;;;7.30;2.47;;;;;;;7.14;97.71;98139.09;4235752;27;20130;-72
2022/09/18 04:24:06;;;;;;;5.30;2.25;;;;;;;7.24;96.94;98138.50;4235956;27;20142;-72
2022/09/18 04:26:09;;;;;;;3.40;2.28;;;;;;;7.19;96.97;98141.53;4235812;27;20023;-72
2022/09/18 04:28:10;;;;;;;4.25;2.45;;;;;;;7.20;97.18;98139.56;4235577;27;20038;-72
2022/09/18 04:30:10;;;;;;;7.10;2.25;;;;;;;7.24;96.96;98138.50;4235160;27;20023;-72
2022/09/18 04:32:11;;;;;;;3.28;2.08;;;;;;;7.29;97.39;98137.41;4234994;27;20043;-72
2022/09/18 04:34:11;;;;;;;9.20;3.03;;;;;;;7.32;96.89;98139.44;4235671;27;20528;-72
2022/09/18 04:36:11;;;;;;;6.38;2.72;;;;;;;7.35;96.98;98137.88;4235525;28;20059;-72
2022/09/18 04:38:12;;;;;;;5.60;2.30;;;;;;;7.38;96.78;98137.19;4236727;27;20027;-72
2022/09/18 04:40:12;;;;;;;4.72;2.50;;;;;;;7.39;96.36;98145.06;4235084;27;20107;-72
2022/09/18 04:42:12;;;;;;;4.20;2.70;;;;;;;7.35;96.57;98137.88;4235871;27;20038;-72
2022/09/18 04:44:13;;;;;;;5.40;2.55;;;;;;;7.34;96.69;98142.59;4235511;27;20316;-72
2022/09/18 04:46:13;;;;;;;5.82;2.65;;;;;;;7.38;96.67;98146.22;4235273;27;20416;-72
2022/09/18 04:48:15;;;;;;;5.18;2.25;;;;;;;7.40;96.08;98154.91;4235258;27;20437;-72
2022/09/18 04:50:15;;;;;;;3.63;2.10;;;;;;;7.38;96.07;98146.22;4235517;27;20031;-72
2022/09/18 04:52:18;;;;;;;2.90;1.92;;;;;;;7.28;96.26;98146.81;4235561;27;20070;-72
2022/09/18 04:54:18;;;;;;;3.83;2.65;;;;;;;7.20;96.64;98139.56;4235224;27;20031;-72
2022/09/18 04:56:18;;;;;;;5.95;2.40;;;;;;;7.11;97.36;98133.50;4236077;27;20177;-72
2022/09/18 04:58:19;;;;;;;3.90;2.50;;;;;;;7.11;97.19;98145.28;4235365;27;20436;-73
2022/09/18 05:00:20;;;;;;;3.63;2.00;;;;;;;7.04;96.92;98134.97;4234833;27;20355;-72
2022/09/18 05:02:20;;;;;;;4.20;2.30;;;;;;;7.04;97.67;98150.69;4235851;27;20058;-72
2022/09/18 05:04:20;;;;;;;6.07;2.50;;;;;;;7.03;97.15;98138.88;4235004;27;20112;-72
2022/09/18 05:06:21;;;;;;;3.83;2.53;;;;;;;7.11;96.91;98139.78;4236156;27;20051;-72
2022/09/18 05:08:22;;;;;;;5.50;2.40;;;;;;;7.08;97.37;98139.75;4234986;27;20086;-73
2022/09/18 05:10:23;;;;;;;6.60;2.57;;;;;;;7.16;97.29;98146.97;4235594;28;20062;-72
2022/09/18 05:12:24;;;;;;;4.07;2.40;;;;;;;7.22;96.79;98140.81;4235649;27;20043;-72
2022/09/18 05:14:24;;;;;;;7.40;2.72;;;;;;;7.30;95.63;98150.00;4234896;27;20138;-72
2022/09/18 05:16:25;;;;;;;2.47;2.22;;;;;;;7.36;95.25;98150.47;4235741;27;20035;-72
2022/09/18 05:18:25;;;;;;;3.63;2.35;;;;;;;7.46;94.62;98156.22;4234910;27;20394;-72
2022/09/18 05:20:27;;;;;;;5.22;2.10;;;;;;;7.54;94.07;98151.63;4235808;28;20483;-72
2022/09/18 05:22:27;;;;;;;5.47;2.23;;;;;;;7.57;93.34;98146.19;4235202;27;20066;-72
2022/09/18 05:24:28;;;;;;;3.15;1.98;;;;;;;7.59;93.31;98154.84;4235509;27;20304;-72
2022/09/18 05:26:29;;;;;;;2.05;1.80;;;;;;;7.59;93.01;98162.31;4234270;27;20069;-72
2022/09/18 05:28:30;;;;;;;4.10;1.90;;;;;;;7.62;92.22;98158.84;4235404;27;20318;-72
2022/09/18 05:30:32;;;;;;;6.25;1.60;;;;;;;7.71;92.01;98159.41;4234762;27;20436;-72
2022/09/18 05:32:32;;;;;;;4.95;1.70;;;;;;;7.67;92.40;98166.00;4236155;27;20036;-72
2022/09/18 05:34:33;;;;;;;3.65;1.40;;;;;;;7.69;92.22;98158.97;4235661;27;20039;-72
2022/09/18 05:36:33;;;;;;;4.72;1.67;;;;;;;7.60;91.66;98158.41;4234978;27;20050;-72
2022/09/18 05:38:33;;;;;;;6.85;1.88;;;;;;;7.64;92.33;98155.72;4235049;27;20047;-72
2022/09/18 05:40:36;;;;;;;2.22;1.45;;;;;;;7.62;93.44;98164.38;4235477;28;20740;-72
2022/09/18 05:42:44;;;;;;;2.92;1.50;;;;;;;7.71;93.32;98164.91;4235662;27;20114;-72
2022/09/18 05:44:44;;;;;;;2.05;1.30;;;;;;;7.74;93.54;98164.19;4237627;27;20104;-72
2022/09/18 05:46:47;;;;;;;6.35;1.60;;;;;;;7.68;94.01;98168.38;4235453;27;20120;-73
2022/09/18 05:48:49;;;;;;;3.83;1.55;;;;;;;7.75;95.12;98157.50;4237396;27;20164;-72
2022/09/18 05:50:50;;;;;;;3.42;1.50;;;;;;;7.76;95.83;98161.06;4239274;27;20050;-73
2022/09/18 05:53:01;;;;;;;3.93;1.80;;;;;;;7.82;96.63;98168.66;4238294;27;20035;-73
2022/09/18 05:55:01;;;;;;;2.80;1.70;;;;;;;7.79;98.35;98172.16;4238546;27;20521;-73
2022/09/18 05:57:02;;;;;;;3.90;1.65;;;;;;;7.73;98.21;98156.28;4238183;27;20042;-73
2022/09/18 05:59:02;;;;;;;3.08;1.60;;;;;;;7.71;98.54;98159.41;4237166;27;20530;-73
2022/09/18 06:01:03;;;;;;;4.50;1.98;;;;;;;7.65;98.63;98157.31;4238175;27;20517;-73
2022/09/18 06:03:06;;;;;;;4.50;2.17;;;;;;;7.58;98.88;98164.28;4235051;27;20369;-73
2022/09/18 06:05:06;;;;;;;3.97;2.10;;;;;;;7.58;98.48;98155.22;4237633;27;20043;-73
2022/09/18 06:07:07;;;;;;;4.70;2.10;;;;;;;7.65;98.24;98160.06;4239407;27;20442;-73
2022/09/18 06:09:07;;;;;;;5.43;2.60;;;;;;;7.68;98.33;98159.34;4238281;27;20702;-73
2022/09/18 06:11:08;;;;;;;4.38;2.60;;;;;;;7.67;98.42;98157.75;4237377;27;20055;-73
2022/09/18 06:13:11;;;;;;;8.52;3.65;;;;;;;7.69;98.15;98158.97;4237335;27;20071;-73
2022/09/18 06:15:12;;;;;;;7.13;3.80;;;;;;;7.76;98.29;98167.34;4236387;27;20059;-73
2022/09/18 06:17:13;;;;;;;5.97;3.42;;;;;;;7.86;98.54;98168.69;4238305;27;21018;-73
2022/09/18 06:19:13;;;;;;;5.05;2.53;;;;;;;7.97;97.84;98171.66;4236237;27;20039;-73
2022/09/18 06:21:13;;;;;;;5.70;2.58;;;;;;;8.15;98.06;98161.72;4236661;27;20035;-73
2022/09/18 06:23:14;;;;;;;4.90;2.50;;;;;;;8.33;96.80;98167.50;4143566;28;20138;-73
2022/09/18 06:25:18;;;;;;;4.32;3.25;;;;;;;8.48;97.28;98165.78;4231713;27;20122;-73
2022/09/18 06:27:18;;;;;;;6.57;2.63;;;;;;;8.54;96.68;98167.06;4235929;27;20043;-73
2022/09/18 06:29:19;;;;;;;5.70;2.47;;;;;;;8.60;93.91;98177.38;4236646;27;20527;-73
2022/09/18 06:31:19;;;;;;;6.55;2.58;;;;;;;8.63;94.75;98173.88;4234177;27;20070;-73
2022/09/18 06:33:20;;;;;;;11.63;4.10;;;;;;;8.59;92.95;98169.47;4237195;27;20062;-73
2022/09/18 06:35:20;;;;;;;5.03;2.65;;;;;;;8.57;92.69;98174.56;4233646;27;20119;-73
2022/09/18 06:37:20;;;;;;;5.50;2.30;;;;;;;8.54;91.88;98178.88;4231538;27;20467;-73
2022/09/18 06:39:21;;;;;;;2.90;2.00;;;;;;;8.45;90.94;98181.13;4234581;27;20414;-73
2022/09/18 06:41:23;;;;;;;4.85;2.63;;;;;;;8.22;93.10;98174.81;4236617;27;20359;-73
2022/09/18 06:43:24;;;;;;;6.15;2.00;;;;;;;8.16;93.37;98168.81;4236833;27;20279;-73
2022/09/18 06:45:24;;;;;;;6.20;2.42;;;;;;;8.21;94.02;98171.25;4236819;27;20346;-73
2022/09/18 06:47:25;;;;;;;5.60;2.40;;;;;;;8.20;94.57;98169.69;4236900;27;20043;-73
2022/09/18 06:49:25;;;;;;;5.75;2.42;;;;;;;8.25;94.86;98169.34;4236253;27;20304;-73
2022/09/18 06:51:26;;;;;;;3.33;2.00;;;;;;;8.29;95.63;98172.16;4236961;27;20082;-73
2022/09/18 06:53:26;;;;;;;2.28;2.00;;;;;;;8.36;94.22;98172.31;4237551;27;20042;-73
2022/09/18 06:55:27;;;;;;;5.63;3.20;;;;;;;8.48;94.17;98171.28;4236537;27;20831;-72
2022/09/18 06:57:27;;;;;;;5.32;2.05;;;;;;;8.60;93.40;98168.31;4236939;27;20401;-72
2022/09/18 06:59:28;;;;;;;7.15;2.50;;;;;;;8.78;93.11;98171.34;4236810;27;20039;-73
2022/09/18 07:01:28;;;;;;;7.22;2.67;;;;;;;8.88;92.59;98160.44;4236832;27;20614;-73
2022/09/18 07:03:28;;;;;;;4.57;2.80;;;;;;;9.07;92.30;98158.69;4236912;27;20546;-73
2022/09/18 07:05:31;;;;;;;4.53;2.33;;;;;;;9.22;92.48;98165.97;4238095;27;20068;-73
2022/09/18 07:07:31;;;;;;;5.03;2.50;;;;;;;9.34;89.84;98160.19;4236128;27;20059;-73
2022/09/18 07:09:31;;;;;;;8.70;2.60;;;;;;;9.43;89.88;98162.66;4236524;27;20078;-73
2022/09/18 07:11:32;;;;;;;5.82;2.75;;;;;;;9.52;88.50;98165.94;4236681;27;20047;-73
2022/09/18 07:13:33;;;;;;;7.28;2.60;;;;;;;9.63;88.86;98157.75;4236964;27;20419;-73
2022/09/18 07:15:33;;;;;;;7.72;3.88;;;;;;;9.62;87.48;98158.91;4236424;27;20055;-73
2022/09/18 07:17:34;;;;;;;5.68;2.22;;;;;;;9.68;88.77;98169.25;4234828;27;20043;-73
2022/09/18 07:19:34;;;;;;;5.40;2.10;;;;;;;9.62;88.17;98161.69;4236329;27;20342;-73
2022/09/18 07:21:36;;;;;;;4.68;2.40;;;;;;;9.69;87.39;98170.03;4237476;27;20043;-73
2022/09/18 07:23:36;;;;;;;3.05;2.00;;;;;;;9.68;86.28;98160.16;4237119;27;20065;-73
2022/09/18 07:25:37;;;;;;;5.85;2.30;;;;;;;9.65;86.94;98158.94;4236619;27;20526;-73
2022/09/18 07:27:37;;;;;;;7.32;2.38;;;;;;;9.70;85.40;98164.13;4237112;27;20039;-73
2022/09/18 07:29:38;;;;;;;4.38;1.90;;;;;;;9.68;85.56;98169.25;4235796;27;20100;-73
2022/09/18 07:31:38;;;;;;;3.67;1.90;;;;;;;9.64;85.59;98164.84;4236485;27;20042;-73
2022/09/18 07:33:39;;;;;;;5.60;2.30;;;;;;;9.63;85.93;98172.34;4236709;27;20148;-73
2022/09/18 07:35:39;;;;;;;6.47;2.20;;;;;;;9.62;86.68;98178.25;4235322;27;20126;-73
2022/09/18 07:37:40;;;;;;;5.57;2.40;;;;;;;9.68;86.07;98168.44;4236543;27;20043;-72
2022/09/18 07:39:41;;;;;;;6.00;2.40;;;;;;;9.71;86.39;98168.47;4235644;27;20450;-73
2022/09/18 07:41:42;;;;;;;3.05;1.83;;;;;;;9.74;86.10;98173.25;4235439;27;20390;-73
2022/09/18 07:43:43;;;;;;;3.22;1.88;;;;;;;9.80;85.89;98176.47;4236238;27;20418;-72
2022/09/18 07:45:44;;;;;;;4.28;2.35;;;;;;;9.84;85.33;98172.53;4236272;27;20518;-73
2022/09/18 07:47:44;;;;;;;7.18;2.67;;;;;;;9.93;85.38;98186.06;4236565;27;20119;-73
2022/09/18 07:49:44;;;;;;;7.80;2.28;;;;;;;9.93;85.80;98179.72;4235550;27;20078;-73
2022/09/18 07:51:45;;;;;;;4.45;2.03;;;;;;;10.00;85.52;98185.31;4236300;27;20046;-73
2022/09/18 07:53:46;;;;;;;2.97;2.10;;;;;;;9.98;84.30;98177.41;4236846;27;20043;-73
2022/09/18 07:55:46;;;;;;;3.35;1.90;;;;;;;10.04;85.40;98181.44;4236302;27;20055;-73
2022/09/18 07:57:52;;;;;;;2.60;1.75;;;;;;;10.07;85.30;98177.88;4237933;27;20524;-73
2022/09/18 07:59:52;;;;;;;4.97;2.10;;;;;;;10.09;86.19;98181.09;4235754;27;20042;-73
2022/09/18 08:01:54;;;;;;;2.90;1.85;;;;;;;10.09;83.18;98178.31;4234267;27;20043;-73
2022/09/18 08:03:54;;;;;;;3.38;1.60;;;;;;;10.14;82.30;98182.69;4233028;27;20545;-73
2022/09/18 08:05:55;;;;;;;2.85;1.73;;;;;;;10.11;83.34;98178.72;4232066;27;20043;-73
2022/09/18 08:08:04;;;;;;;5.53;2.20;;;;;;;10.16;82.67;98183.09;4231090;27;20158;-73
2022/09/18 08:10:05;;;;;;;5.43;1.92;;;;;;;10.10;83.71;98168.06;4234873;27;20291;-73
2022/09/18 08:12:05;;;;;;;4.55;2.45;;;;;;;10.04;83.17;98170.38;4235057;27;20039;-73
2022/09/18 08:14:07;;;;;;;3.63;2.00;;;;;;;10.05;83.05;98166.41;4236326;27;20417;-73
2022/09/18 08:16:08;;;;;;;4.50;2.50;;;;;;;10.10;83.31;98176.34;4234911;27;20031;-73
2022/09/18 08:18:10;;;;;;;6.97;2.20;;;;;;;10.16;83.37;98179.53;4235390;27;20023;-73
2022/09/18 08:20:11;;;;;;;6.50;2.13;;;;;;;10.16;83.30;98176.78;4235233;27;20290;-72
2022/09/18 08:22:11;;;;;;;4.22;2.10;;;;;;;10.16;82.62;98174.78;4235634;27;20098;-72
2022/09/18 08:24:12;;;;;;;7.05;2.22;;;;;;;10.18;82.96;98175.22;4235272;27;20547;-73
2022/09/18 08:26:12;;;;;;;4.38;2.20;;;;;;;10.22;82.77;98178.00;4236112;27;20027;-73
2022/09/18 08:28:13;;;;;;;4.43;2.22;;;;;;;10.11;82.41;98181.50;4237159;27;20027;-73
2022/09/18 08:30:15;;;;;;;4.13;2.08;;;;;;;10.19;82.44;98187.88;4235404;27;20058;-72
2022/09/18 08:32:16;;;;;;;3.63;1.88;;;;;;;10.24;81.12;98179.25;4236440;27;20031;-72
2022/09/18 08:34:16;;;;;;;4.32;1.85;;;;;;;10.27;80.95;98183.22;4236789;27;20031;-73
2022/09/18 08:36:16;;;;;;;4.38;1.80;;;;;;;10.29;80.73;98175.34;4235797;27;20042;-73
2022/09/18 08:38:17;;;;;;;7.10;2.20;;;;;;;10.30;80.47;98169.41;4236065;27;20451;-72
2022/09/18 08:40:21;;;;;;;3.90;2.00;;;;;;;10.28;80.47;98171.00;4235838;27;20027;-73
2022/09/18 08:42:41;;;;;;;5.07;3.75;;;;;;;10.18;81.70;98172.47;4236794;27;20807;-72
2022/09/18 08:44:51;;;;;;;4.50;2.58;;;;;;;10.24;81.31;98170.94;4217471;28;20143;-73
2022/09/18 08:46:56;;;;;;;5.53;2.78;;;;;;;10.16;81.43;98162.94;4236314;27;20075;-72
2022/09/18 08:49:11;;;;;;;3.92;2.25;;;;;;;10.10;81.23;98168.06;4235551;27;20134;-72
2022/09/18 08:51:15;;;;;;;5.35;2.30;;;;;;;10.11;82.20;98172.41;4236664;27;20394;-73
2022/09/18 08:53:22;;;;;;;7.28;2.85;;;;;;;10.09;81.26;98158.16;4236129;27;20248;-72
2022/09/18 08:55:37;;;;;;;3.92;2.13;;;;;;;10.10;80.73;98160.56;4237575;27;20047;-72
2022/09/18 08:57:46;;;;;;;4.85;2.10;;;;;;;10.10;81.71;98160.56;4236270;27;20043;-73
2022/09/18 08:59:55;;;;;;;4.90;2.42;;;;;;;10.16;80.52;98158.22;4235162;27;20047;-72
2022/09/18 09:02:01;;;;;;;4.45;2.30;;;;;;;10.14;80.52;98155.03;4235664;27;20467;-72
2022/09/18 09:04:28;;;;;;;5.32;1.92;;;;;;;10.19;79.11;98159.44;4235874;28;20050;-72
2022/09/18 09:06:55;;;;;;;5.15;2.10;;;;;;;10.07;80.30;98154.97;4229072;27;20173;-72
2022/09/18 09:09:27;;;;;;;5.18;2.13;;;;;;;10.14;80.58;98155.84;4236513;27;20192;-73
2022/09/18 09:11:39;;;;;;;4.28;2.17;;;;;;;10.09;80.14;98153.44;4236112;27;20478;-72
2022/09/18 09:13:49;;;;;;;3.15;1.95;;;;;;;10.17;81.48;98156.25;4236457;27;20138;-72
2022/09/18 09:15:58;;;;;;;6.47;1.90;;;;;;;10.25;80.84;98144.09;4236352;27;20170;-72
2022/09/18 09:18:32;;;;;;;3.60;2.22;;;;;;;10.33;80.00;98157.56;4236350;27;20040;-72
2022/09/18 09:20:49;;;;;;;3.15;1.50;;;;;;;10.40;78.15;98162.38;4238217;27;20122;-72
2022/09/18 09:22:55;;;;;;;3.78;1.58;;;;;;;10.43;78.85;98161.63;4238026;27;20064;-73
2022/09/18 09:25:08;;;;;;;3.75;1.75;;;;;;;10.49;79.31;98148.22;4239346;27;20135;-72
2022/09/18 09:27:18;;;;;;;2.97;1.90;;;;;;;10.57;77.10;98145.09;4239402;27;20078;-72
2022/09/18 09:29:31;;;;;;;3.15;2.08;;;;;;;10.60;78.97;98147.13;4235698;27;20574;-73
2022/09/18 09:31:40;;;;;;;4.28;1.50;;;;;;;10.74;76.78;98148.34;4240392;27;20054;-72
2022/09/18 09:33:53;;;;;;;3.10;1.80;;;;;;;10.82;76.96;98149.97;4239204;27;20407;-72
2022/09/18 09:35:54;;;;;;;;;;;;;;;10.85;76.83;98150.03;4239478;27;20070;-72
2022/09/18 09:37:58;;;;;;;3.83;1.30;;;;;;;10.83;76.57;98152.34;4238748;27;19916;-72
2022/09/18 09:40:07;;;;;;;6.15;2.78;;;;;;;10.86;77.42;98146.06;4238346;27;20070;-72
2022/09/18 09:42:28;;;;;;;2.72;1.30;;;;;;;10.96;76.97;98145.31;4238686;27;20090;-72
2022/09/18 09:44:31;;;;;;;3.55;1.83;;;;;;;11.05;77.25;98147.72;4238797;27;20073;-73
2022/09/18 09:47:13;;;;;;;2.55;1.40;;;;;;;11.09;76.98;98145.78;4239905;27;20506;-72
2022/09/18 09:49:21;;;;;;;2.75;1.58;;;;;;;11.13;75.95;98140.25;4192130;27;20082;-72
2022/09/18 09:51:45;;;;;;;2.72;1.30;;;;;;;11.18;73.88;98146.22;4238508;27;20047;-72
2022/09/18 09:53:45;;;;;;;2.95;1.30;;;;;;;10.95;74.80;98140.97;4238183;27;20053;-72